Time;durP1;ratioP1;P1;durP2;ratioP2;P2;SDS_P1;SDS_P2;PMS_P1;PMS_P2;Temp;Humidity;BMP_temperature;BMP_pressure;BME280_temperature;BME280_humidity;BME280_pressure;Samples;Min_cycle;Max_cycle;Signal;HPM_P1;HPM_P2
2023/10/27 00:00:29;;;;;;;1.65;0.10;;;;;;;15.19;100.00;98714.38;5072242;28;20503;-69
2023/10/27 00:02:55;;;;;;;0.70;0.08;;;;;;;15.18;100.00;98691.78;5062911;28;20032;-70
2023/10/27 00:05:20;;;;;;;0.30;0.10;;;;;;;15.19;100.00;98692.59;5081094;28;20070;-70
2023/10/27 00:07:45;;;;;;;0.20;0.10;;;;;;;15.20;100.00;98704.69;5083210;28;20032;-69
2023/10/27 00:10:13;;;;;;;0.10;0.00;;;;;;;15.22;100.00;98684.28;5086598;28;20044;-69
2023/10/27 00:12:39;;;;;;;0.40;0.10;;;;;;;15.24;100.00;98679.63;5063650;28;20031;-69
2023/10/27 00:15:06;;;;;;;0.40;0.00;;;;;;;15.23;100.00;98689.31;5079328;28;20032;-69
2023/10/27 00:17:31;;;;;;;0.30;0.10;;;;;;;15.26;100.00;98683.63;5082410;28;20236;-69
2023/10/27 00:19:57;;;;;;;0.55;0.08;;;;;;;15.28;100.00;98678.97;5084017;28;20517;-69
2023/10/27 00:22:25;;;;;;;0.25;0.00;;;;;;;15.27;100.00;98658.22;5076612;28;20044;-69
2023/10/27 00:24:50;;;;;;;0.45;0.00;;;;;;;15.26;100.00;98664.47;5085320;28;20514;-69
2023/10/27 00:27:16;;;;;;;0.30;0.00;;;;;;;15.27;100.00;98661.63;5075944;28;20033;-69
2023/10/27 00:29:41;;;;;;;0.10;0.00;;;;;;;15.26;100.00;98657.41;5074003;28;20063;-69
2023/10/27 00:32:07;;;;;;;0.28;0.00;;;;;;;15.26;100.00;98644.28;5082733;28;20506;-69
2023/10/27 00:34:32;;;;;;;1.95;0.10;;;;;;;15.24;100.00;98616.66;5085038;28;20075;-69
2023/10/27 00:36:58;;;;;;;0.20;0.10;;;;;;;15.23;100.00;98607.19;5084235;28;20467;-69
2023/10/27 00:39:23;;;;;;;0.32;0.08;;;;;;;15.24;100.00;98601.72;5083710;28;20511;-69
2023/10/27 00:41:48;;;;;;;0.70;0.00;;;;;;;15.27;100.00;98617.03;5091438;28;20443;-69
2023/10/27 00:44:14;;;;;;;0.10;0.00;;;;;;;15.30;100.00;98615.00;5083046;28;20480;-69
2023/10/27 00:46:39;;;;;;;0.77;0.10;;;;;;;15.32;100.00;98605.88;5081899;28;20024;-69
2023/10/27 00:49:05;;;;;;;0.88;0.05;;;;;;;15.33;100.00;98607.47;5084327;28;20036;-69
2023/10/27 00:51:31;;;;;;;1.30;0.10;;;;;;;15.33;100.00;98590.94;5079714;28;20040;-69
2023/10/27 00:53:58;;;;;;;0.10;0.10;;;;;;;15.36;100.00;98614.13;5082505;28;20055;-69
2023/10/27 00:56:24;;;;;;;1.67;0.10;;;;;;;15.38;100.00;98633.88;5062025;28;21406;-69
2023/10/27 00:58:50;;;;;;;0.20;0.00;;;;;;;15.38;100.00;98620.75;5067750;28;20032;-69
2023/10/27 01:01:17;;;;;;;0.17;0.00;;;;;;;15.42;100.00;98610.63;5081978;28;20450;-69
2023/10/27 01:03:43;;;;;;;0.52;0.00;;;;;;;15.42;100.00;98589.63;5085022;28;20497;-68
2023/10/27 01:06:09;;;;;;;1.20;0.00;;;;;;;15.41;100.00;98580.94;5084122;28;20044;-68
2023/10/27 01:08:34;;;;;;;0.35;0.00;;;;;;;15.42;100.00;98569.44;5089828;28;20028;-68
2023/10/27 01:11:01;;;;;;;0.40;0.00;;;;;;;15.42;100.00;98566.00;5088182;28;20024;-68
2023/10/27 01:13:26;;;;;;;0.70;0.10;;;;;;;15.43;100.00;98563.16;5088281;28;20115;-68
2023/10/27 01:15:52;;;;;;;0.52;0.10;;;;;;;15.44;100.00;98556.91;5086822;28;20035;-69
2023/10/27 01:18:17;;;;;;;0.32;0.00;;;;;;;15.46;100.00;98551.41;5069657;28;20036;-69
2023/10/27 01:20:42;;;;;;;0.20;0.00;;;;;;;15.45;100.00;98550.63;5072981;28;20047;-68
2023/10/27 01:23:08;;;;;;;0.75;0.10;;;;;;;15.46;100.00;98520.72;5086960;28;20502;-68
2023/10/27 01:25:33;;;;;;;0.40;0.00;;;;;;;15.50;100.00;98529.75;5065925;28;20039;-68
2023/10/27 01:27:59;;;;;;;0.55;0.00;;;;;;;15.51;100.00;98491.19;5086501;28;20024;-68
2023/10/27 01:30:24;;;;;;;0.20;0.10;;;;;;;15.53;100.00;98537.19;5085015;28;20107;-68
2023/10/27 01:32:50;;;;;;;1.30;0.00;;;;;;;15.56;100.00;98534.16;5084878;28;20035;-68
2023/10/27 01:35:16;;;;;;;0.30;0.00;;;;;;;15.56;100.00;98526.28;5084990;28;20107;-68
2023/10/27 01:37:41;;;;;;;0.40;0.00;;;;;;;15.57;100.00;98521.81;5083032;28;20170;-68
2023/10/27 01:40:07;;;;;;;0.30;0.00;;;;;;;15.58;100.00;98512.94;5089508;28;20115;-68
2023/10/27 01:42:34;;;;;;;0.20;0.10;;;;;;;15.63;100.00;98496.47;5087958;28;20123;-68
2023/10/27 01:45:04;;;;;;;0.77;0.05;;;;;;;15.66;100.00;98490.78;5085435;28;20027;-68
2023/10/27 01:47:30;;;;;;;0.98;0.15;;;;;;;15.75;100.00;98473.69;5087137;28;20051;-68
2023/10/27 01:49:55;;;;;;;1.75;0.08;;;;;;;15.76;100.00;98444.59;5087300;28;20023;-68
2023/10/27 01:52:21;;;;;;;0.45;0.08;;;;;;;15.80;100.00;98416.84;5090382;28;20046;-68
2023/10/27 01:54:47;;;;;;;2.83;0.05;;;;;;;15.87;100.00;98396.53;5086290;28;20028;-68
2023/10/27 01:57:12;;;;;;;3.50;0.10;;;;;;;15.94;100.00;98412.19;5088637;28;20024;-68
2023/10/27 01:59:37;;;;;;;0.98;0.10;;;;;;;15.91;100.00;98391.63;5090881;28;20065;-68
2023/10/27 02:02:03;;;;;;;1.13;0.30;;;;;;;15.92;100.00;98407.16;5087648;28;20042;-68
2023/10/27 02:04:29;;;;;;;0.50;0.10;;;;;;;15.91;100.00;98408.19;5087897;28;20398;-68
2023/10/27 02:06:55;;;;;;;2.83;0.10;;;;;;;15.90;100.00;98390.81;5086309;28;20047;-68
2023/10/27 02:09:20;;;;;;;0.70;0.10;;;;;;;15.98;100.00;98392.31;5080842;28;20031;-68
2023/10/27 02:11:46;;;;;;;6.43;0.17;;;;;;;16.15;100.00;98387.94;5083811;28;20036;-68
2023/10/27 02:14:12;;;;;;;1.65;0.10;;;;;;;16.13;100.00;98366.34;5090005;28;20040;-68
2023/10/27 02:16:37;;;;;;;1.38;0.10;;;;;;;16.08;100.00;98350.47;5048909;28;20484;-68
2023/10/27 02:19:03;;;;;;;2.92;0.00;;;;;;;16.09;100.00;98362.59;5091183;28;20442;-68
2023/10/27 02:21:29;;;;;;;2.45;0.10;;;;;;;16.10;100.00;98400.97;5084920;28;20036;-68
2023/10/27 02:23:54;;;;;;;8.40;0.17;;;;;;;16.21;100.00;98338.94;5088512;28;20044;-68
2023/10/27 02:26:20;;;;;;;3.85;0.17;;;;;;;16.40;100.00;98336.94;5090501;28;20124;-69
2023/10/27 02:28:45;;;;;;;5.60;0.10;;;;;;;16.48;100.00;98354.97;5087338;28;20043;-71
2023/10/27 02:31:11;;;;;;;0.70;0.10;;;;;;;16.57;100.00;98345.66;5086495;28;20031;-70
2023/10/27 02:33:36;;;;;;;5.20;0.22;;;;;;;16.59;100.00;98330.47;5065362;28;20036;-70
2023/10/27 02:36:02;;;;;;;2.38;0.40;;;;;;;16.63;100.00;98318.44;5078497;28;21376;-69
2023/10/27 02:38:28;;;;;;;0.55;0.10;;;;;;;16.67;100.00;98343.25;5081752;28;20027;-70
2023/10/27 02:40:53;;;;;;;1.15;0.10;;;;;;;16.65;100.00;98328.75;5084511;28;20027;-69
2023/10/27 02:43:19;;;;;;;1.40;0.20;;;;;;;16.63;100.00;98318.44;5090692;28;20030;-69
2023/10/27 02:45:44;;;;;;;3.50;0.10;;;;;;;16.64;100.00;98320.06;5082350;28;20055;-68
2023/10/27 02:48:10;;;;;;;4.95;0.10;;;;;;;16.68;100.00;98321.19;5071551;28;20047;-68
2023/10/27 02:50:35;;;;;;;2.67;0.10;;;;;;;16.67;100.00;98331.94;5077142;28;20042;-68
2023/10/27 02:53:01;;;;;;;0.82;0.15;;;;;;;16.67;100.00;98326.69;5088577;28;20054;-68
2023/10/27 02:55:26;;;;;;;8.30;0.30;;;;;;;16.70;100.00;98319.13;5095160;28;20035;-69
2023/10/27 02:57:51;;;;;;;0.63;0.10;;;;;;;16.73;100.00;98318.66;5078941;28;20107;-68
2023/10/27 03:00:19;;;;;;;5.18;0.20;;;;;;;16.68;100.00;98315.94;5074877;28;20036;-68
2023/10/27 03:02:44;;;;;;;2.30;0.20;;;;;;;16.65;100.00;98311.16;5089597;28;20039;-69
2023/10/27 03:05:10;;;;;;;1.05;0.10;;;;;;;16.61;100.00;98302.09;5080333;28;20037;-68
2023/10/27 03:07:35;;;;;;;0.88;0.05;;;;;;;16.62;100.00;98293.19;5079402;28;20123;-68
2023/10/27 03:10:00;;;;;;;1.30;0.10;;;;;;;16.62;100.00;98293.19;5076159;28;20054;-68
2023/10/27 03:12:26;;;;;;;0.90;0.10;;;;;;;16.60;100.00;98288.16;5080436;28;20019;-68
2023/10/27 03:14:51;;;;;;;5.78;0.22;;;;;;;16.57;100.00;98277.31;5078407;28;20025;-68
2023/10/27 03:17:17;;;;;;;0.68;0.08;;;;;;;16.56;100.00;98275.72;5060302;28;20028;-68
2023/10/27 03:19:42;;;;;;;1.92;0.30;;;;;;;16.56;100.00;98275.72;5086721;28;20662;-68
2023/10/27 03:22:08;;;;;;;4.55;0.32;;;;;;;16.58;100.00;98269.19;5058014;28;20036;-68
2023/10/27 03:24:33;;;;;;;0.98;0.20;;;;;;;16.59;100.00;98256.84;5088396;28;20097;-69
2023/10/27 03:26:59;;;;;;;1.08;0.10;;;;;;;16.59;100.00;98246.34;5076802;28;20388;-68
2023/10/27 03:29:24;;;;;;;4.10;0.20;;;;;;;16.60;100.00;98247.94;5075191;28;20449;-69
2023/10/27 03:31:50;;;;;;;0.63;0.10;;;;;;;16.57;100.00;98243.94;5083076;28;20036;-68
2023/10/27 03:34:16;;;;;;;5.40;0.20;;;;;;;16.57;100.00;98248.41;5081983;28;20125;-68
2023/10/27 03:36:41;;;;;;;2.72;0.17;;;;;;;16.59;100.00;98220.03;5082157;28;20043;-69
2023/10/27 03:39:07;;;;;;;0.30;0.10;;;;;;;16.60;100.00;98224.28;5074149;28;20141;-68
2023/10/27 03:41:32;;;;;;;1.35;0.43;;;;;;;16.62;100.00;98216.94;5088648;28;20119;-68
2023/10/27 03:43:58;;;;;;;4.00;0.20;;;;;;;16.58;100.00;98207.94;5062091;28;20166;-69
2023/10/27 03:46:23;;;;;;;2.95;0.10;;;;;;;16.57;100.00;98206.34;5059328;28;20035;-68
2023/10/27 03:48:49;;;;;;;2.63;0.10;;;;;;;16.59;100.00;98201.66;5076735;28;20494;-68
2023/10/27 03:51:15;;;;;;;4.75;0.10;;;;;;;16.57;100.00;98203.72;5079453;28;20051;-68
2023/10/27 03:53:41;;;;;;;2.35;0.10;;;;;;;16.56;100.00;98186.34;5083729;28;20039;-68
2023/10/27 03:56:07;;;;;;;1.70;0.10;;;;;;;16.54;100.00;98191.06;5087354;28;20540;-69
2023/10/27 03:58:32;;;;;;;1.88;0.17;;;;;;;16.56;100.00;98187.16;5064355;28;20032;-69
2023/10/27 04:00:57;;;;;;;4.80;0.10;;;;;;;16.60;100.00;98175.13;5083416;28;20037;-69
2023/10/27 04:03:23;;;;;;;1.70;0.10;;;;;;;16.63;100.00;98163.34;5085352;28;20161;-69
2023/10/27 04:05:48;;;;;;;3.92;0.45;;;;;;;16.63;100.00;98165.16;5080739;28;20040;-69
2023/10/27 04:08:14;;;;;;;3.22;0.10;;;;;;;16.60;100.00;98161.97;5079783;28;20024;-68
2023/10/27 04:10:39;;;;;;;5.30;0.20;;;;;;;16.59;100.00;98156.97;5087020;28;20027;-68
2023/10/27 04:13:07;;;;;;;2.83;0.10;;;;;;;16.63;100.00;98147.56;5082644;28;20084;-69
2023/10/27 04:15:33;;;;;;;3.92;0.43;;;;;;;16.63;100.00;98147.56;5087289;28;20036;-68
2023/10/27 04:18:00;;;;;;;3.75;0.20;;;;;;;16.65;100.00;98142.91;5091376;28;20024;-70
2023/10/27 04:20:25;;;;;;;4.95;0.20;;;;;;;16.68;100.00;98131.91;5069050;28;20036;-68
2023/10/27 04:22:51;;;;;;;1.80;0.20;;;;;;;16.67;100.00;98125.03;5086084;28;20043;-74
2023/10/27 04:25:16;;;;;;;0.50;0.10;;;;;;;16.69;100.00;98120.34;5089206;28;20035;-69
2023/10/27 04:27:42;;;;;;;0.77;0.20;;;;;;;16.71;100.00;98118.28;5088612;28;20435;-69
2023/10/27 04:30:08;;;;;;;1.85;0.10;;;;;;;16.68;100.00;98121.38;5085713;28;20097;-69
2023/10/27 04:32:40;;;;;;;4.57;0.10;;;;;;;16.72;100.00;98129.59;5086640;28;20114;-69
2023/10/27 04:35:06;;;;;;;2.47;0.10;;;;;;;16.72;100.00;98114.59;5088051;28;20024;-71
2023/10/27 04:37:32;;;;;;;1.77;0.10;;;;;;;16.77;100.00;98117.31;5084189;28;20333;-70
2023/10/27 04:40:01;;;;;;;2.47;0.10;;;;;;;16.79;100.00;98115.25;5087675;28;20043;-69
2023/10/27 04:42:27;;;;;;;1.98;0.10;;;;;;;16.84;100.00;98107.44;5088975;28;20153;-69
2023/10/27 04:44:53;;;;;;;4.20;0.15;;;;;;;16.86;100.00;98121.13;5086622;28;20032;-70
2023/10/27 04:47:19;;;;;;;3.63;0.15;;;;;;;16.87;100.00;98114.84;5088352;28;20028;-68
2023/10/27 04:49:48;;;;;;;6.32;0.20;;;;;;;16.88;100.00;98119.06;5087543;28;20084;-69
2023/10/27 04:52:13;;;;;;;3.22;0.20;;;;;;;16.89;100.00;98120.66;5085509;28;20071;-68
2023/10/27 04:54:39;;;;;;;0.57;0.10;;;;;;;16.91;100.00;98123.84;5078306;28;20514;-69
2023/10/27 04:57:05;;;;;;;4.97;0.22;;;;;;;16.94;100.00;98124.41;5069689;28;20067;-69
2023/10/27 04:59:31;;;;;;;2.38;0.20;;;;;;;16.96;100.00;98141.53;5084201;28;20032;-69
2023/10/27 05:01:57;;;;;;;4.40;0.10;;;;;;;16.94;100.00;98153.31;5083887;28;20028;-69
2023/10/27 05:04:22;;;;;;;5.10;0.57;;;;;;;16.96;100.00;98161.78;5090469;28;20036;-69
2023/10/27 05:06:48;;;;;;;6.65;0.40;;;;;;;16.96;100.00;98146.78;5084228;28;20043;-69
2023/10/27 05:09:13;;;;;;;1.98;0.25;;;;;;;16.97;100.00;98156.28;5090312;28;20020;-68
2023/10/27 05:11:40;;;;;;;8.82;0.35;;;;;;;16.99;100.00;98172.59;5087880;28;20051;-69
2023/10/27 05:14:06;;;;;;;3.88;0.22;;;;;;;17.02;100.00;98171.31;5085610;28;20055;-69
2023/10/27 05:16:32;;;;;;;2.03;0.52;;;;;;;17.02;100.00;98158.94;5075746;28;20121;-69
2023/10/27 05:18:58;;;;;;;6.07;0.20;;;;;;;17.04;100.00;98156.06;5085525;28;20539;-69
2023/10/27 05:21:26;;;;;;;3.53;0.10;;;;;;;17.03;100.00;98138.69;5080447;28;20119;-69
2023/10/27 05:23:56;;;;;;;5.72;0.20;;;;;;;17.01;100.00;98140.81;5087401;28;20028;-68
2023/10/27 05:26:22;;;;;;;5.97;0.20;;;;;;;16.95;100.00;98136.50;5088437;28;20148;-68
2023/10/27 05:28:47;;;;;;;4.75;0.17;;;;;;;16.95;100.00;98121.53;5064201;28;20032;-68
2023/10/27 05:31:13;;;;;;;4.00;0.20;;;;;;;16.95;100.00;98102.31;5082825;28;20031;-68
2023/10/27 05:33:38;;;;;;;7.10;0.30;;;;;;;16.95;100.00;98097.06;5086820;28;20537;-69
2023/10/27 05:36:04;;;;;;;6.68;0.50;;;;;;;16.96;100.00;98088.13;5086510;28;20519;-69
2023/10/27 05:38:30;;;;;;;1.83;0.38;;;;;;;16.92;100.00;98093.88;5085028;28;20127;-68
2023/10/27 05:40:55;;;;;;;3.47;0.10;;;;;;;16.92;100.00;98093.88;5086957;28;20034;-68
2023/10/27 05:43:22;;;;;;;0.95;0.10;;;;;;;16.94;100.00;98098.09;5086627;28;20024;-69
2023/10/27 05:45:47;;;;;;;5.13;0.20;;;;;;;16.95;100.00;98094.41;5087854;28;20411;-68
2023/10/27 05:48:13;;;;;;;2.53;0.10;;;;;;;16.96;100.00;98093.38;5079913;28;20036;-69
2023/10/27 05:50:38;;;;;;;5.35;0.20;;;;;;;16.99;100.00;98091.06;5083930;28;20047;-68
2023/10/27 05:53:04;;;;;;;5.38;0.20;;;;;;;17.01;100.00;98088.19;5083575;28;20484;-69
2023/10/27 05:55:29;;;;;;;5.60;0.30;;;;;;;17.02;100.00;98081.88;5078431;28;20028;-69
2023/10/27 05:57:55;;;;;;;3.00;0.10;;;;;;;17.03;100.00;98073.72;5088669;28;20032;-69
2023/10/27 06:00:21;;;;;;;2.80;0.17;;;;;;;17.05;100.00;98081.38;5087161;28;20028;-68
2023/10/27 06:02:48;;;;;;;2.42;0.28;;;;;;;17.02;100.00;98076.59;5084568;28;20085;-69
2023/10/27 06:05:15;;;;;;;2.08;0.13;;;;;;;17.02;100.00;98089.75;5082635;28;20078;-68
2023/10/27 06:07:41;;;;;;;4.13;0.57;;;;;;;16.97;100.00;98087.88;5086880;28;20048;-69
2023/10/27 06:10:08;;;;;;;3.85;0.13;;;;;;;16.96;100.00;98102.06;5086645;28;20136;-68
2023/10/27 06:12:33;;;;;;;2.65;0.20;;;;;;;17.02;100.00;98116.84;5083957;28;20032;-69
2023/10/27 06:14:59;;;;;;;5.38;0.30;;;;;;;17.03;100.00;98115.81;5088248;28;20028;-69
2023/10/27 06:17:25;;;;;;;0.30;0.10;;;;;;;17.05;100.00;98118.22;5087152;28;20028;-69
2023/10/27 06:19:50;;;;;;;6.10;0.30;;;;;;;17.05;100.00;98128.72;5081789;28;20085;-68
2023/10/27 06:22:18;;;;;;;4.60;0.10;;;;;;;17.04;100.00;98132.41;5088418;28;20024;-69
2023/10/27 06:24:43;;;;;;;2.97;0.20;;;;;;;17.05;100.00;98128.72;5087386;28;20042;-69
2023/10/27 06:27:08;;;;;;;6.72;0.20;;;;;;;17.06;100.00;98151.38;5084555;28;20043;-69
2023/10/27 06:29:34;;;;;;;6.05;0.30;;;;;;;17.06;100.00;98161.88;5083729;28;20020;-68
2023/10/27 06:31:59;;;;;;;3.63;0.17;;;;;;;17.05;100.00;98158.47;5083309;28;20031;-68
2023/10/27 06:34:25;;;;;;;3.50;0.10;;;;;;;17.05;100.00;98155.84;5084482;28;20535;-68
2023/10/27 06:36:50;;;;;;;4.47;0.20;;;;;;;17.07;100.00;98152.97;5086365;28;20522;-69
2023/10/27 06:39:15;;;;;;;1.65;0.20;;;;;;;17.07;100.00;98142.44;5082407;28;20133;-68
2023/10/27 06:41:41;;;;;;;3.70;0.30;;;;;;;17.07;100.00;98126.66;5082476;28;20038;-69
2023/10/27 06:44:06;;;;;;;11.95;0.20;;;;;;;17.09;100.00;98117.47;5087656;28;20119;-68
2023/10/27 06:46:32;;;;;;;2.63;0.25;;;;;;;17.09;100.00;98104.31;5085824;28;20060;-68
2023/10/27 06:48:57;;;;;;;7.00;0.50;;;;;;;17.06;100.00;98102.19;5084289;28;20048;-69
2023/10/27 06:51:23;;;;;;;8.07;0.30;;;;;;;17.06;100.00;98077.72;5084685;28;20036;-68
2023/10/27 06:53:49;;;;;;;6.93;0.32;;;;;;;17.05;100.00;98086.63;5084353;28;20043;-68
2023/10/27 06:56:14;;;;;;;2.47;0.17;;;;;;;17.05;100.00;98076.91;5077534;28;20032;-68
2023/10/27 06:58:40;;;;;;;3.63;0.50;;;;;;;17.06;100.00;98083.78;5084299;28;20032;-69
2023/10/27 07:01:08;;;;;;;6.60;0.38;;;;;;;17.06;100.00;98082.97;5088517;28;20031;-69
2023/10/27 07:03:35;;;;;;;7.05;0.20;;;;;;;17.08;100.00;98088.78;5085989;28;20024;-69
2023/10/27 07:06:03;;;;;;;5.05;0.32;;;;;;;17.11;100.00;98070.69;5044349;28;1196982;-69
2023/10/27 07:08:30;;;;;;;3.03;0.30;;;;;;;17.14;100.00;98062.31;5082873;28;20035;-71
2023/10/27 07:10:59;;;;;;;2.47;0.10;;;;;;;17.14;100.00;98062.31;5087133;28;20035;-69
2023/10/27 07:13:26;;;;;;;3.00;0.10;;;;;;;17.15;100.00;98066.53;5081406;28;20048;-69
2023/10/27 07:15:53;;;;;;;6.88;0.20;;;;;;;17.15;100.00;98082.31;5083162;28;20024;-69
2023/10/27 07:18:19;;;;;;;5.60;0.20;;;;;;;17.19;100.00;98074.72;5083168;28;20165;-70
2023/10/27 07:20:44;;;;;;;8.50;0.20;;;;;;;17.21;100.00;98093.69;5084451;28;20519;-68
2023/10/27 07:23:10;;;;;;;3.90;0.10;;;;;;;17.22;100.00;98103.19;5089923;28;20036;-68
2023/10/27 07:25:35;;;;;;;2.33;0.32;;;;;;;17.23;100.00;98112.66;5063420;28;20032;-69
2023/10/27 07:28:01;;;;;;;5.93;0.32;;;;;;;17.25;100.00;98113.22;5081048;28;20430;-69
2023/10/27 07:30:27;;;;;;;3.67;0.50;;;;;;;17.31;100.00;98119.34;5084477;28;20388;-68
2023/10/27 07:32:52;;;;;;;5.82;0.20;;;;;;;17.35;100.00;98115.97;5078830;28;20125;-68
2023/10/27 07:35:18;;;;;;;6.00;0.47;;;;;;;17.38;100.00;98118.13;5073272;28;20024;-68
2023/10/27 07:37:43;;;;;;;9.55;0.30;;;;;;;17.37;100.00;98144.69;5078407;28;20055;-68
2023/10/27 07:40:09;;;;;;;3.30;0.10;;;;;;;17.32;100.00;98157.78;5089493;28;20499;-67
2023/10/27 07:42:34;;;;;;;4.22;0.20;;;;;;;17.29;100.00;98176.69;5078680;28;20040;-68
2023/10/27 07:45:00;;;;;;;7.28;0.22;;;;;;;17.24;100.00;98166.88;5084083;28;21086;-67
2023/10/27 07:47:25;;;;;;;3.88;0.30;;;;;;;17.18;100.00;98170.50;5084345;28;20036;-68
2023/10/27 07:49:52;;;;;;;1.50;0.10;;;;;;;17.12;100.00;98166.19;5084388;28;20510;-69
2023/10/27 07:52:18;;;;;;;1.70;0.08;;;;;;;17.02;100.00;98176.56;5083761;28;20032;-69
2023/10/27 07:54:44;;;;;;;3.70;0.15;;;;;;;16.89;100.00;98168.00;5083783;28;20111;-68
2023/10/27 07:57:10;;;;;;;0.52;0.00;;;;;;;16.78;100.00;98176.75;5087611;28;20547;-68
2023/10/27 07:59:35;;;;;;;0.50;0.10;;;;;;;16.68;100.00;98231.00;5077935;28;20039;-68
2023/10/27 08:02:00;;;;;;;1.15;0.00;;;;;;;16.61;100.00;98244.28;5082278;28;20059;-68
2023/10/27 08:04:26;;;;;;;2.97;0.10;;;;;;;16.58;100.00;98260.50;5079015;28;20032;-68
2023/10/27 08:06:52;;;;;;;0.10;0.00;;;;;;;16.52;100.00;98256.22;5085166;28;20040;-68
2023/10/27 08:09:20;;;;;;;0.75;0.10;;;;;;;16.47;100.00;98274.53;5079067;28;20078;-68
2023/10/27 08:11:48;;;;;;;1.27;0.10;;;;;;;16.42;100.00;98290.22;5083434;28;20031;-68
2023/10/27 08:14:14;;;;;;;0.28;0.10;;;;;;;16.35;100.00;98297.44;5076498;28;20039;-68
2023/10/27 08:16:40;;;;;;;0.80;0.10;;;;;;;16.31;100.00;98307.59;5083337;28;20434;-68
2023/10/27 08:19:07;;;;;;;1.33;0.10;;;;;;;16.28;100.00;98300.19;5081848;28;20044;-67
2023/10/27 08:21:32;;;;;;;1.30;0.20;;;;;;;16.30;100.00;98310.47;5082993;28;20036;-67
2023/10/27 08:23:59;;;;;;;1.50;0.10;;;;;;;16.30;100.00;98299.94;5080546;28;20093;-68
2023/10/27 08:26:24;;;;;;;2.10;0.10;;;;;;;16.30;100.00;98292.06;5077009;28;20605;-68
2023/10/27 08:28:51;;;;;;;2.03;0.08;;;;;;;16.37;100.00;98285.66;5084165;28;20484;-68
2023/10/27 08:31:17;;;;;;;2.30;0.10;;;;;;;16.36;100.00;98293.78;5082746;28;20040;-69
2023/10/27 08:33:45;;;;;;;0.30;0.10;;;;;;;16.37;100.00;98311.13;5083939;28;20036;-68
2023/10/27 08:36:14;;;;;;;3.22;0.10;;;;;;;16.31;100.00;98312.84;5083800;28;20480;-68
2023/10/27 08:38:40;;;;;;;1.00;0.10;;;;;;;16.31;100.00;98319.94;5076746;28;20492;-68
2023/10/27 08:41:08;;;;;;;3.08;0.10;;;;;;;16.33;100.00;98328.41;5077504;28;20032;-68
2023/10/27 08:43:37;;;;;;;0.35;0.10;;;;;;;16.31;100.00;98327.81;5082854;28;20101;-68
2023/10/27 08:46:05;;;;;;;1.02;0.10;;;;;;;16.30;100.00;98326.22;5079903;28;20035;-68
2023/10/27 08:48:32;;;;;;;0.30;0.00;;;;;;;16.28;100.00;98323.84;5068352;28;20047;-68
2023/10/27 08:51:06;;;;;;;0.13;0.10;;;;;;;16.28;100.00;98302.81;5086253;28;20420;-68
2023/10/27 08:53:33;;;;;;;0.35;0.20;;;;;;;16.29;100.00;98287.84;5060952;28;20059;-68
2023/10/27 08:55:58;;;;;;;1.45;0.20;;;;;;;16.29;100.00;98251.06;5078081;28;20032;-68
2023/10/27 08:58:24;;;;;;;1.38;0.10;;;;;;;16.16;100.00;98276.56;5079374;28;20036;-68
2023/10/27 09:00:50;;;;;;;2.65;0.10;;;;;;;16.19;100.00;98288.44;5083828;28;20510;-68
2023/10/27 09:03:17;;;;;;;2.47;0.13;;;;;;;16.24;100.00;98294.59;5087639;28;20085;-69
2023/10/27 09:05:44;;;;;;;0.90;0.10;;;;;;;16.26;100.00;98321.44;5084603;28;20067;-69
2023/10/27 09:08:11;;;;;;;1.10;0.10;;;;;;;16.26;100.00;98313.56;5085882;28;20028;-69
2023/10/27 09:10:38;;;;;;;0.28;0.10;;;;;;;16.30;100.00;98300.75;5086878;28;20039;-69
2023/10/27 09:13:07;;;;;;;1.40;0.15;;;;;;;16.33;100.00;98310.00;5083131;28;20510;-69
2023/10/27 09:15:45;;;;;;;1.77;0.10;;;;;;;16.35;100.00;98329.75;5081526;28;20472;-69
2023/10/27 09:18:12;;;;;;;0.08;0.00;;;;;;;16.34;100.00;98341.31;5085679;28;20035;-69
2023/10/27 09:20:52;;;;;;;2.38;0.20;;;;;;;16.20;100.00;98346.00;5088147;28;20040;-68
2023/10/27 09:23:20;;;;;;;0.20;0.10;;;;;;;16.12;100.00;98361.31;5090750;28;20109;-68
2023/10/27 09:25:47;;;;;;;1.23;0.10;;;;;;;16.00;100.00;98364.00;5062335;28;20068;-69
2023/10/27 09:28:13;;;;;;;0.50;0.10;;;;;;;15.99;100.00;98387.84;5082095;28;20024;-69
2023/10/27 09:30:41;;;;;;;0.73;0.10;;;;;;;16.00;100.00;98390.25;5079044;28;20085;-69
2023/10/27 09:33:26;;;;;;;0.57;0.10;;;;;;;16.04;100.00;98383.53;5086396;28;20043;-69
2023/10/27 09:35:52;;;;;;;0.30;0.10;;;;;;;16.11;100.00;98365.78;5078528;28;20093;-69
2023/10/27 09:38:20;;;;;;;0.30;0.10;;;;;;;16.26;100.00;98370.56;5077178;28;20279;-69
2023/10/27 09:40:47;;;;;;;0.30;0.10;;;;;;;16.33;100.00;98394.09;5076025;28;20043;-69
2023/10/27 09:43:20;;;;;;;0.65;0.10;;;;;;;16.30;100.00;98405.06;5082633;28;20034;-69
2023/10/27 09:45:58;;;;;;;0.88;0.20;;;;;;;16.24;100.00;98407.56;5086188;28;20070;-69
2023/10/27 09:48:27;;;;;;;0.60;0.10;;;;;;;16.25;100.00;98414.44;5080278;28;20107;-70
2023/10/27 09:51:17;;;;;;;0.20;0.10;;;;;;;16.16;100.00;98418.44;5083791;28;20032;-70
2023/10/27 09:53:46;;;;;;;0.35;0.15;;;;;;;16.09;100.00;98420.38;5082100;28;20059;-69
2023/10/27 09:56:13;;;;;;;2.53;0.20;;;;;;;16.04;100.00;98422.91;5085960;28;20085;-69
2023/10/27 09:58:40;;;;;;;1.15;0.20;;;;;;;16.04;100.00;98422.91;5089153;28;20032;-69
2023/10/27 10:01:07;;;;;;;0.28;0.10;;;;;;;16.08;100.00;98439.00;5074648;28;20528;-70
2023/10/27 10:03:33;;;;;;;0.30;0.10;;;;;;;16.11;100.00;98439.34;5083995;28;20119;-69
2023/10/27 10:06:20;;;;;;;0.55;0.10;;;;;;;16.19;100.00;98451.31;5086833;28;20422;-70
2023/10/27 10:09:14;;;;;;;0.73;0.20;;;;;;;16.20;100.00;98461.59;5081374;28;20089;-69
2023/10/27 10:11:47;;;;;;;2.05;0.10;;;;;;;16.20;100.00;98460.81;5078373;28;20140;-70
2023/10/27 10:14:39;;;;;;;0.60;0.20;;;;;;;16.12;100.00;98472.47;5081577;28;20032;-70
2023/10/27 10:17:05;;;;;;;0.30;0.10;;;;;;;16.10;100.00;98473.72;5076561;28;20169;-71
2023/10/27 10:19:51;;;;;;;1.35;0.10;;;;;;;16.07;100.00;98474.97;5082461;28;20032;-70
2023/10/27 10:22:43;;;;;;;0.28;0.10;;;;;;;16.07;100.00;98467.09;5049741;28;20396;-70
2023/10/27 10:25:15;;;;;;;1.02;0.20;;;;;;;16.08;100.00;98467.88;5078442;28;20035;-70
2023/10/27 10:28:12;;;;;;;0.50;0.17;;;;;;;16.10;100.00;98468.47;5078435;28;20039;-67
2023/10/27 10:30:39;;;;;;;0.22;0.10;;;;;;;16.21;100.00;98476.34;5084550;28;20835;-67
2023/10/27 10:33:20;;;;;;;0.50;0.10;;;;;;;16.27;100.00;98479.88;5078968;28;20043;-67
2023/10/27 10:35:50;;;;;;;0.45;0.10;;;;;;;16.22;100.00;98477.94;5080176;28;20032;-67
2023/10/27 10:38:24;;;;;;;0.30;0.10;;;;;;;16.21;100.00;98492.13;5065677;28;20036;-67
2023/10/27 10:40:58;;;;;;;3.10;0.20;;;;;;;16.14;100.00;98490.63;5078592;28;20745;-67
2023/10/27 10:43:36;;;;;;;0.50;0.10;;;;;;;16.12;100.00;98479.53;5084994;28;20039;-66
2023/10/27 10:46:10;;;;;;;0.68;0.10;;;;;;;16.14;100.00;98496.69;5083934;28;20084;-67
2023/10/27 10:48:45;;;;;;;1.15;0.20;;;;;;;16.16;100.00;98505.13;5081134;28;20092;-69
2023/10/27 10:51:15;;;;;;;0.30;0.10;;;;;;;16.13;100.00;98505.59;5081876;28;20028;-69
2023/10/27 10:53:43;;;;;;;0.20;0.10;;;;;;;16.07;100.00;98510.97;5084578;28;20086;-68
2023/10/27 10:56:09;;;;;;;0.60;0.20;;;;;;;16.16;100.00;98515.63;5079764;28;20111;-68
2023/10/27 10:58:37;;;;;;;1.23;0.10;;;;;;;16.34;100.00;98516.56;5080913;28;20132;-68
2023/10/27 11:01:04;;;;;;;0.32;0.10;;;;;;;16.53;100.00;98521.50;5084972;28;20046;-68
2023/10/27 11:03:33;;;;;;;0.45;0.20;;;;;;;16.57;100.00;98522.59;5082364;28;20118;-68
2023/10/27 11:06:02;;;;;;;1.30;0.20;;;;;;;16.52;100.00;98525.16;5086478;28;20056;-68
2023/10/27 11:08:37;;;;;;;0.55;0.25;;;;;;;16.52;100.00;98521.72;5065038;28;20047;-67
2023/10/27 11:11:06;;;;;;;0.55;0.20;;;;;;;16.52;100.00;98522.50;5065893;28;20036;-69
2023/10/27 11:13:38;;;;;;;0.63;0.20;;;;;;;16.52;100.00;98524.34;5086095;28;20032;-68
2023/10/27 11:16:13;;;;;;;1.00;0.20;;;;;;;16.37;100.00;98526.63;5082919;28;20502;-67
2023/10/27 11:18:39;;;;;;;0.75;0.10;;;;;;;16.37;100.00;98527.44;5084160;28;20039;-68
2023/10/27 11:21:05;;;;;;;0.43;0.10;;;;;;;16.40;100.00;98523.53;5080041;28;20024;-68
2023/10/27 11:23:31;;;;;;;0.52;0.10;;;;;;;16.37;100.00;98527.44;5085466;28;20444;-68